createdAt,value
2022-11-24T00:01:17.921Z,97363.66
2022-11-24T00:03:46.140Z,97369.75
2022-11-24T00:06:16.099Z,97369.75
2022-11-24T00:08:45.856Z,97368.09
2022-11-24T00:11:15.309Z,97377.53
2022-11-24T00:13:42.876Z,97374.19
2022-11-24T00:16:18.285Z,97384.44
2022-11-24T00:18:48.125Z,97384.53
2022-11-24T00:21:16.346Z,97383.78
2022-11-24T00:23:43.358Z,97385.53
2022-11-24T00:26:16.070Z,97391.56
2022-11-24T00:28:44.209Z,97387.44
2022-11-24T00:31:34.442Z,97393.44
2022-11-24T00:34:04.060Z,97398.66
2022-11-24T00:36:32.975Z,97397.88
2022-11-24T00:39:02.448Z,97406.59
2022-11-24T00:41:29.921Z,97416.09
2022-11-24T00:43:57.421Z,97407.59
2022-11-24T00:46:25.016Z,97411.94
2022-11-24T00:48:54.179Z,97421.41
2022-11-24T00:51:23.845Z,97423.19
2022-11-24T00:53:50.770Z,97427.47
2022-11-24T00:56:17.321Z,97430.97
2022-11-24T00:58:43.916Z,97435.28
2022-11-24T01:01:16.835Z,97432.75
2022-11-24T01:03:44.015Z,97429.41
2022-11-24T01:06:14.412Z,97433.72
2022-11-24T01:08:41.615Z,97435.53
2022-11-24T01:11:12.769Z,97433.00
2022-11-24T01:13:40.156Z,97442.44
2022-11-24T01:16:07.522Z,97431.44
2022-11-24T01:18:34.190Z,97434.03
2022-11-24T01:21:09.622Z,97431.53
2022-11-24T01:23:36.568Z,97432.41
2022-11-24T01:26:12.596Z,97435.03
2022-11-24T01:28:44.886Z,97445.28
2022-11-24T01:31:13.758Z,97441.88
2022-11-24T01:33:40.478Z,97454.69
2022-11-24T01:36:07.176Z,97443.63
2022-11-24T01:38:33.800Z,97453.06
2022-11-24T01:41:06.255Z,97449.63
2022-11-24T01:43:33.145Z,97452.22
2022-11-24T01:46:15.212Z,97461.56
2022-11-24T01:48:45.240Z,97460.75
2022-11-24T01:51:16.214Z,97466.69
2022-11-24T01:53:47.266Z,97455.66
2022-11-24T01:56:14.202Z,97463.34
2022-11-24T01:58:44.480Z,97465.03
2022-11-24T02:01:11.659Z,97469.34
2022-11-24T02:03:42.063Z,97465.94
2022-11-24T02:06:14.018Z,97468.47
2022-11-24T02:08:49.371Z,97473.59
2022-11-24T02:11:16.068Z,97469.34
2022-11-24T02:13:44.204Z,97468.47
2022-11-24T02:16:12.505Z,97465.94
2022-11-24T02:18:42.071Z,97459.09
2022-11-24T02:21:11.498Z,97464.22
2022-11-24T02:23:55.558Z,97455.66
2022-11-24T02:26:35.006Z,97457.41
2022-11-24T02:29:02.344Z,97456.56
2022-11-24T02:31:29.088Z,97460.81
2022-11-24T02:33:56.128Z,97459.97
2022-11-24T02:36:22.717Z,97470.28
2022-11-24T02:38:49.353Z,97474.50
2022-11-24T02:41:22.599Z,97467.69
2022-11-24T02:43:59.303Z,97472.94
2022-11-24T02:46:26.054Z,97478.09
2022-11-24T02:48:52.807Z,97474.75
2022-11-24T02:51:19.778Z,97481.66
2022-11-24T02:53:46.338Z,97481.66
2022-11-24T02:56:12.910Z,97475.66
2022-11-24T02:58:39.657Z,97472.25
2022-11-24T03:01:06.360Z,97474.00
2022-11-24T03:03:33.388Z,97477.41
2022-11-24T03:06:00.047Z,97478.31
2022-11-24T03:08:26.599Z,97477.41
2022-11-24T03:10:53.225Z,97474.91
2022-11-24T03:13:19.832Z,97478.34
2022-11-24T03:15:46.446Z,97477.50
2022-11-24T03:18:13.124Z,97485.19
2022-11-24T03:20:39.720Z,97488.59
2022-11-24T03:23:06.317Z,97475.84
2022-11-24T03:25:32.914Z,97484.38
2022-11-24T03:27:59.601Z,97482.66
2022-11-24T03:30:26.273Z,97486.09
2022-11-24T03:32:56.147Z,97486.13
2022-11-24T03:35:23.215Z,97498.03
2022-11-24T03:37:49.898Z,97505.75
2022-11-24T03:40:18.021Z,97502.31
2022-11-24T03:42:44.633Z,97512.63
2022-11-24T03:45:37.996Z,97513.47
2022-11-24T03:47:57.995Z,97512.63
2022-11-24T03:50:24.609Z,97516.91
2022-11-24T03:52:51.223Z,97511.78
2022-11-24T03:55:17.826Z,97516.09
2022-11-24T03:57:44.443Z,97518.75
2022-11-24T04:00:11.953Z,97514.53
2022-11-24T04:02:38.838Z,97519.59
2022-11-24T04:05:06.234Z,97535.03
2022-11-24T04:07:32.888Z,97532.50
2022-11-24T04:09:59.557Z,97538.50
2022-11-24T04:12:44.723Z,97542.81
2022-11-24T04:15:14.078Z,97542.88
2022-11-24T04:17:41.077Z,97548.88
2022-11-24T04:20:08.569Z,97550.63
2022-11-24T04:22:35.906Z,97544.66
2022-11-24T04:25:03.689Z,97551.53
2022-11-24T04:27:30.621Z,97551.53
2022-11-24T04:29:57.246Z,97553.28
2022-11-24T04:32:23.830Z,97560.13
2022-11-24T04:34:50.438Z,97563.44
2022-11-24T04:37:17.055Z,97562.59
2022-11-24T04:39:44.000Z,97566.00
2022-11-24T04:42:10.584Z,97567.69
2022-11-24T04:44:37.378Z,97567.59
2022-11-24T04:47:04.234Z,97571.88
2022-11-24T04:49:30.871Z,97578.63
2022-11-24T04:51:57.505Z,97585.38
2022-11-24T04:54:24.149Z,97590.44
2022-11-24T04:56:52.129Z,97586.97
2022-11-24T04:59:19.918Z,97595.47
2022-11-24T05:01:47.401Z,97598.94
2022-11-24T05:04:15.976Z,97592.91
2022-11-24T05:06:42.663Z,97596.34
2022-11-24T05:09:13.591Z,97598.00
2022-11-24T05:11:40.138Z,97603.91
2022-11-24T05:14:06.778Z,97599.63
2022-11-24T05:16:33.454Z,97608.19
2022-11-24T05:19:00.127Z,97609.88
2022-11-24T05:21:28.076Z,97604.75
2022-11-24T05:23:54.642Z,97602.97
2022-11-24T05:26:21.563Z,97602.09
2022-11-24T05:28:48.162Z,97601.19
2022-11-24T05:31:14.737Z,97604.59
2022-11-24T05:33:43.372Z,97607.22
2022-11-24T05:36:30.356Z,97600.34
2022-11-24T05:38:57.226Z,97608.06
2022-11-24T05:41:23.867Z,97615.75
2022-11-24T05:43:50.489Z,97617.47
2022-11-24T05:46:17.301Z,97612.41
2022-11-24T05:48:44.035Z,97624.34
2022-11-24T05:51:10.659Z,97617.56
2022-11-24T05:53:37.227Z,97630.41
2022-11-24T05:56:04.411Z,97632.97
2022-11-24T05:58:31.043Z,97636.41
2022-11-24T06:00:57.583Z,97645.00
2022-11-24T06:03:24.175Z,97645.00
2022-11-24T06:05:50.802Z,97642.50
2022-11-24T06:08:17.399Z,97645.06
2022-11-24T06:10:43.974Z,97652.75
2022-11-24T06:13:10.632Z,97657.06
2022-11-24T06:15:37.848Z,97657.97
2022-11-24T06:18:04.662Z,97657.13
2022-11-24T06:20:32.910Z,97667.38
2022-11-24T06:23:00.231Z,97673.34
2022-11-24T06:25:27.162Z,97674.25
2022-11-24T06:27:53.718Z,97678.53
2022-11-24T06:30:20.308Z,97682.88
2022-11-24T06:32:49.647Z,97691.41
2022-11-24T06:35:16.989Z,97691.38
2022-11-24T06:37:43.655Z,97694.84
2022-11-24T06:40:10.513Z,97704.16
2022-11-24T06:42:37.721Z,97710.97
2022-11-24T06:45:09.035Z,97712.63
2022-11-24T06:47:36.723Z,97715.16
2022-11-24T06:50:03.664Z,97726.28
2022-11-24T06:52:30.217Z,97724.53
2022-11-24T06:54:57.349Z,97727.09
2022-11-24T06:57:24.050Z,97728.75
2022-11-24T06:59:50.786Z,97735.56
2022-11-24T07:02:17.319Z,97738.09
2022-11-24T07:04:43.913Z,97735.53
2022-11-24T07:07:10.603Z,97738.06
2022-11-24T07:09:37.212Z,97745.75
2022-11-24T07:12:04.947Z,97750.88
2022-11-24T07:14:32.302Z,97744.97
2022-11-24T07:16:59.086Z,97749.19
2022-11-24T07:19:25.731Z,97749.28
2022-11-24T07:21:52.327Z,97746.69
2022-11-24T07:24:19.001Z,97751.84
2022-11-24T07:26:45.781Z,97754.41
2022-11-24T07:29:12.346Z,97750.09
2022-11-24T07:31:39.217Z,97752.72
2022-11-24T07:34:06.363Z,97755.19
2022-11-24T07:36:32.895Z,97760.28
2022-11-24T07:38:59.759Z,97763.69
2022-11-24T07:41:26.448Z,97766.22
2022-11-24T07:43:53.172Z,97764.44
2022-11-24T07:46:20.725Z,97778.09
2022-11-24T07:48:47.451Z,97773.78
2022-11-24T07:51:14.372Z,97776.28
2022-11-24T07:53:40.918Z,97776.22
2022-11-24T07:56:09.099Z,97775.41
2022-11-24T07:58:37.129Z,97779.66
2022-11-24T08:01:15.152Z,97771.84
2022-11-24T08:03:43.050Z,97764.19
2022-11-24T08:06:30.118Z,97769.31
2022-11-24T08:08:57.931Z,97773.59
2022-11-24T08:11:25.268Z,97773.59
2022-11-24T08:13:52.129Z,97772.78
2022-11-24T08:16:20.126Z,97780.44
2022-11-24T08:18:55.199Z,97781.22
2022-11-24T08:21:23.325Z,97777.81
2022-11-24T08:23:50.199Z,97785.44
2022-11-24T08:26:19.325Z,97789.66
2022-11-24T08:28:47.186Z,97785.31
2022-11-24T08:31:16.486Z,97800.63
2022-11-24T08:33:43.473Z,97798.81
2022-11-24T08:36:13.045Z,97797.91
2022-11-24T08:38:39.638Z,97797.00
2022-11-24T08:41:09.103Z,97801.22
2022-11-24T08:43:35.830Z,97805.44
2022-11-24T08:46:05.415Z,97802.84
2022-11-24T08:48:32.915Z,97804.53
2022-11-24T08:51:06.123Z,97810.44
2022-11-24T08:53:32.717Z,97808.66
2022-11-24T08:56:00.587Z,97818.09
2022-11-24T08:58:29.189Z,97812.88
2022-11-24T09:00:56.050Z,97810.31
2022-11-24T09:03:22.802Z,97814.56
2022-11-24T09:05:52.111Z,97817.13
2022-11-24T09:08:19.269Z,97814.53
2022-11-24T09:10:45.830Z,97829.91
2022-11-24T09:13:12.591Z,97823.91
2022-11-24T09:15:39.166Z,97817.91
2022-11-24T09:18:05.749Z,97825.59
2022-11-24T09:20:32.342Z,97828.03
2022-11-24T09:22:58.951Z,97827.94
2022-11-24T09:25:25.618Z,97833.00
2022-11-24T09:27:52.481Z,97830.38
2022-11-24T09:30:19.190Z,97835.53
2022-11-24T09:32:45.809Z,97833.72
2022-11-24T09:35:12.393Z,97832.81
2022-11-24T09:37:39.063Z,97838.78
2022-11-24T09:40:06.271Z,97839.66
2022-11-24T09:42:38.703Z,97831.09
2022-11-24T09:45:05.606Z,97838.72
2022-11-24T09:47:47.532Z,97836.16
2022-11-24T09:50:19.355Z,97835.34
2022-11-24T09:53:01.104Z,97826.75
2022-11-24T09:55:50.061Z,97833.47
2022-11-24T09:58:50.901Z,97837.72
2022-11-24T10:01:21.384Z,97841.13
2022-11-24T10:03:51.075Z,97843.66
2022-11-24T10:06:31.594Z,97847.00
2022-11-24T10:09:13.265Z,97841.00
2022-11-24T10:11:50.702Z,97850.47
2022-11-24T10:14:26.995Z,97847.06
2022-11-24T10:17:19.307Z,97847.13
2022-11-24T10:20:20.376Z,97847.97
2022-11-24T10:23:11.388Z,97841.13
2022-11-24T10:25:58.224Z,97846.28
2022-11-24T10:28:49.110Z,97844.56
2022-11-24T10:31:31.395Z,97853.13
2022-11-24T10:34:05.888Z,97843.69
2022-11-24T10:36:47.357Z,97847.97
2022-11-24T10:39:23.839Z,97846.22
2022-11-24T10:41:56.633Z,97847.97
2022-11-24T10:44:23.448Z,97853.13
2022-11-24T10:46:50.736Z,97854.78
2022-11-24T10:49:36.075Z,97858.09
2022-11-24T10:52:11.838Z,97851.25
2022-11-24T10:54:58.094Z,97846.91
2022-11-24T10:57:30.594Z,97863.00
2022-11-24T10:59:57.423Z,97859.53
2022-11-24T11:02:39.420Z,97865.44
2022-11-24T11:05:24.118Z,97870.47
2022-11-24T11:07:51.007Z,97873.88
2022-11-24T11:10:22.087Z,97876.38
2022-11-24T11:12:49.085Z,97865.16
2022-11-24T11:15:29.955Z,97870.38
2022-11-24T11:18:01.201Z,97870.44
2022-11-24T11:20:32.555Z,97877.22
2022-11-24T11:23:03.344Z,97880.59
2022-11-24T11:25:34.200Z,97883.19
2022-11-24T11:28:19.693Z,97878.00
2022-11-24T11:31:17.393Z,97877.06
2022-11-24T11:34:05.518Z,97886.41
2022-11-24T11:36:39.375Z,97877.84
2022-11-24T11:39:06.564Z,97877.78
2022-11-24T11:41:37.012Z,97876.91
2022-11-24T11:44:38.779Z,97871.69
2022-11-24T11:47:36.181Z,97875.06
2022-11-24T11:50:05.658Z,97873.31
2022-11-24T11:53:03.247Z,97878.38
2022-11-24T11:55:32.806Z,97880.94
2022-11-24T11:58:12.557Z,97874.06
2022-11-24T12:00:46.933Z,97877.31
2022-11-24T12:03:33.552Z,97878.94
2022-11-24T12:06:24.961Z,97887.38
2022-11-24T12:09:23.714Z,97889.94
2022-11-24T12:12:23.445Z,97883.97
2022-11-24T12:14:59.507Z,97881.34
2022-11-24T12:17:40.211Z,97883.91
2022-11-24T12:20:41.462Z,97886.47
2022-11-24T12:23:32.316Z,97889.06
2022-11-24T12:26:28.529Z,97887.38
2022-11-24T12:29:20.314Z,97887.44
2022-11-24T12:32:05.996Z,97889.13
2022-11-24T12:35:09.444Z,97889.13
2022-11-24T12:37:56.248Z,97903.66
2022-11-24T12:41:06.411Z,97896.81
2022-11-24T12:43:50.293Z,97899.34
2022-11-24T12:46:26.753Z,97901.88
2022-11-24T12:49:24.112Z,97895.88
2022-11-24T12:52:01.506Z,97906.94
2022-11-24T12:54:38.244Z,97900.97
2022-11-24T12:57:34.361Z,97906.84
2022-11-24T13:00:08.786Z,97904.31
2022-11-24T13:02:52.295Z,97904.41
2022-11-24T13:05:33.280Z,97906.16
2022-11-24T13:08:05.498Z,97909.63
2022-11-24T13:10:59.101Z,97914.75
2022-11-24T13:14:00.690Z,97915.66
2022-11-24T13:16:40.818Z,97915.69
2022-11-24T13:19:22.584Z,97919.97
2022-11-24T13:22:12.079Z,97915.75
2022-11-24T13:24:41.296Z,97916.63
2022-11-24T13:27:13.865Z,97915.75
2022-11-24T13:29:43.274Z,97916.59
2022-11-24T13:32:11.733Z,97920.84
2022-11-24T13:34:43.047Z,97923.41
2022-11-24T13:37:35.802Z,97926.78
2022-11-24T13:40:22.911Z,97928.47
2022-11-24T13:43:01.615Z,97940.47
2022-11-24T13:45:40.951Z,97936.13
2022-11-24T13:48:20.817Z,97940.38
2022-11-24T13:50:51.766Z,97948.13
2022-11-24T13:53:30.172Z,97949.00
2022-11-24T13:56:21.775Z,97943.84
2022-11-24T13:58:51.814Z,97951.53
2022-11-24T14:01:23.748Z,97946.41
2022-11-24T14:04:30.576Z,97948.91
2022-11-24T14:07:08.701Z,97954.94
2022-11-24T14:09:48.243Z,97966.88
2022-11-24T14:12:20.667Z,97967.72
2022-11-24T14:15:20.931Z,97971.09
2022-11-24T14:17:47.716Z,97973.69
2022-11-24T14:20:25.430Z,97971.97
2022-11-24T14:22:52.483Z,97978.00
2022-11-24T14:25:21.020Z,97983.09
2022-11-24T14:27:50.374Z,97978.81
2022-11-24T14:30:21.472Z,97977.06
2022-11-24T14:33:03.074Z,97980.44
2022-11-24T14:35:35.733Z,97980.38
2022-11-24T14:38:04.847Z,97976.97
2022-11-24T14:40:37.754Z,97980.38
2022-11-24T14:43:08.524Z,97985.50
2022-11-24T14:45:35.432Z,97983.84
2022-11-24T14:48:02.103Z,97982.09
2022-11-24T14:50:29.039Z,97988.91
2022-11-24T14:52:59.832Z,97989.75
2022-11-24T14:55:35.382Z,97992.31
2022-11-24T14:58:02.203Z,97993.16
2022-11-24T15:00:31.741Z,97997.47
2022-11-24T15:03:01.304Z,97987.22
2022-11-24T15:05:59.358Z,97992.38
2022-11-24T15:08:36.433Z,97994.97
2022-11-24T15:11:09.261Z,98000.16
2022-11-24T15:13:40.785Z,97991.66
2022-11-24T15:16:20.821Z,97996.78
2022-11-24T15:18:56.955Z,97993.34
2022-11-24T15:21:37.352Z,98002.72
2022-11-24T15:24:18.594Z,98003.63
2022-11-24T15:26:46.859Z,98001.97
2022-11-24T15:29:14.048Z,98013.88
2022-11-24T15:31:43.316Z,98015.59
2022-11-24T15:34:15.782Z,98019.88
2022-11-24T15:36:42.573Z,98011.31
2022-11-24T15:39:09.686Z,98021.56
2022-11-24T15:41:37.543Z,98021.56
2022-11-24T15:44:04.844Z,98020.69
2022-11-24T15:46:38.443Z,98024.13
2022-11-24T15:49:06.193Z,98034.38
2022-11-24T15:51:33.674Z,98025.88
2022-11-24T15:54:01.552Z,98029.31
2022-11-24T15:56:34.180Z,98035.34
2022-11-24T15:59:02.337Z,98037.91
2022-11-24T16:01:32.879Z,98041.31
2022-11-24T16:04:01.063Z,98043.88
2022-11-24T16:06:27.935Z,98048.19
2022-11-24T16:08:54.900Z,98046.47
2022-11-24T16:11:22.942Z,98044.81
2022-11-24T16:13:53.041Z,98048.22
2022-11-24T16:16:24.201Z,98055.09
2022-11-24T16:18:50.985Z,98052.56
2022-11-24T16:21:18.122Z,98056.84
2022-11-24T16:23:46.176Z,98055.94
2022-11-24T16:26:12.938Z,98058.56
2022-11-24T16:28:39.679Z,98055.13
2022-11-24T16:31:06.421Z,98051.66
2022-11-24T16:33:33.107Z,98058.56
2022-11-24T16:36:02.397Z,98058.63
2022-11-24T16:38:29.910Z,98059.44
2022-11-24T16:40:57.123Z,98056.03
2022-11-24T16:43:27.008Z,98062.91
2022-11-24T16:46:21.498Z,98060.31
2022-11-24T16:48:50.532Z,98063.75
2022-11-24T16:51:18.388Z,98058.63
2022-11-24T16:53:45.785Z,98062.13
2022-11-24T16:56:14.492Z,98066.38
2022-11-24T16:58:41.232Z,98068.97
2022-11-24T17:01:11.258Z,98069.00
2022-11-24T17:03:38.794Z,98064.75
2022-11-24T17:06:08.886Z,98074.22
2022-11-24T17:08:37.941Z,98070.81
2022-11-24T17:11:08.950Z,98075.06
2022-11-24T17:13:35.786Z,98083.63
2022-11-24T17:16:07.304Z,98079.31
2022-11-24T17:18:37.389Z,98089.56
2022-11-24T17:21:09.585Z,98092.06
2022-11-24T17:23:38.219Z,98090.34
2022-11-24T17:26:08.054Z,98094.56
2022-11-24T17:28:37.909Z,98097.94
2022-11-24T17:31:25.345Z,98102.19
2022-11-24T17:33:54.841Z,98098.72
2022-11-24T17:36:24.142Z,98109.00
2022-11-24T17:38:51.276Z,98111.53
2022-11-24T17:41:22.282Z,98113.25
2022-11-24T17:43:51.269Z,98116.69
2022-11-24T17:46:18.759Z,98113.28
2022-11-24T17:48:48.328Z,98105.53
2022-11-24T17:51:19.490Z,98113.25
2022-11-24T17:53:49.560Z,98112.50
2022-11-24T17:56:24.662Z,98121.00
2022-11-24T17:58:56.744Z,98119.28
2022-11-24T18:01:24.085Z,98122.78
2022-11-24T18:03:53.610Z,98118.44
2022-11-24T18:06:24.207Z,98118.44
2022-11-24T18:08:51.773Z,98124.44
2022-11-24T18:11:31.000Z,98124.44
2022-11-24T18:14:03.674Z,98129.59
2022-11-24T18:16:35.721Z,98127.03
2022-11-24T18:19:09.955Z,98128.78
2022-11-24T18:21:40.932Z,98129.69
2022-11-24T18:24:12.077Z,98133.06
2022-11-24T18:26:44.324Z,98136.50
2022-11-24T18:29:12.323Z,98132.19
2022-11-24T18:31:39.279Z,98143.28
2022-11-24T18:34:07.312Z,98145.84
2022-11-24T18:36:35.148Z,98139.00
2022-11-24T18:39:06.420Z,98139.84
2022-11-24T18:41:33.505Z,98133.00
2022-11-24T18:44:03.481Z,98128.72
2022-11-24T18:46:30.181Z,98129.66
2022-11-24T18:48:57.595Z,98139.94
2022-11-24T18:51:24.348Z,98149.41
2022-11-24T18:53:58.186Z,98155.41
2022-11-24T18:56:25.723Z,98154.56
2022-11-24T18:58:56.053Z,98153.72
2022-11-24T19:01:28.239Z,98152.00
2022-11-24T19:03:58.706Z,98152.91
2022-11-24T19:06:37.224Z,98152.94
2022-11-24T19:09:11.390Z,98153.81
2022-11-24T19:11:41.131Z,98153.00
2022-11-24T19:14:11.313Z,98158.16
2022-11-24T19:16:38.345Z,98165.84
2022-11-24T19:19:05.777Z,98163.28
2022-11-24T19:21:34.727Z,98176.09
2022-11-24T19:24:05.268Z,98185.56
2022-11-24T19:26:37.732Z,98180.44
2022-11-24T19:29:05.775Z,98189.00
2022-11-24T19:31:35.881Z,98185.59
2022-11-24T19:34:03.718Z,98183.03
2022-11-24T19:36:30.969Z,98187.31
2022-11-24T19:38:58.983Z,98188.22
2022-11-24T19:41:28.562Z,98185.59
2022-11-24T19:43:55.824Z,98194.19
2022-11-24T19:46:27.174Z,98190.84
2022-11-24T19:48:57.349Z,98187.38
2022-11-24T19:51:30.992Z,98185.81
2022-11-24T19:53:58.215Z,98201.16
2022-11-24T19:56:27.683Z,98192.63
2022-11-24T19:58:55.556Z,98199.53
2022-11-24T20:01:27.274Z,98196.09
2022-11-24T20:03:58.838Z,98205.50
2022-11-24T20:06:28.000Z,98208.09
2022-11-24T20:08:55.064Z,98204.69
2022-11-24T20:11:22.379Z,98219.31
2022-11-24T20:13:49.979Z,98212.47
2022-11-24T20:16:20.122Z,98225.28
2022-11-24T20:18:47.829Z,98227.88
2022-11-24T20:21:17.966Z,98239.88
2022-11-24T20:23:46.822Z,98230.44
2022-11-24T20:26:19.909Z,98240.69
2022-11-24T20:28:47.465Z,98243.22
2022-11-24T20:31:20.208Z,98252.63
2022-11-24T20:33:47.605Z,98249.19
2022-11-24T20:36:16.862Z,98247.41
2022-11-24T20:38:44.747Z,98253.44
2022-11-24T20:41:16.951Z,98256.84
2022-11-24T20:43:44.478Z,98249.91
2022-11-24T20:46:22.701Z,98248.22
2022-11-24T20:48:49.729Z,98245.59
2022-11-24T20:51:26.375Z,98255.81
2022-11-24T20:53:56.820Z,98248.13
2022-11-24T20:56:36.805Z,98260.09
2022-11-24T20:59:04.774Z,98257.53
2022-11-24T21:01:40.225Z,98263.50
2022-11-24T21:04:09.939Z,98260.94
2022-11-24T21:06:37.707Z,98260.97
2022-11-24T21:09:05.974Z,98273.78
2022-11-24T21:11:32.930Z,98271.22
2022-11-24T21:14:00.373Z,98277.25
2022-11-24T21:16:32.748Z,98275.50
2022-11-24T21:19:03.912Z,98277.19
2022-11-24T21:21:34.855Z,98282.28
2022-11-24T21:24:07.509Z,98280.56
2022-11-24T21:26:39.646Z,98278.88
2022-11-24T21:29:08.322Z,98285.72
2022-11-24T21:31:39.906Z,98286.53
2022-11-24T21:34:07.665Z,98291.69
2022-11-24T21:36:40.803Z,98289.94
2022-11-24T21:39:07.677Z,98294.25
2022-11-24T21:41:34.746Z,98290.84
2022-11-24T21:44:03.046Z,98295.97
2022-11-24T21:46:38.958Z,98301.94
2022-11-24T21:49:09.337Z,98309.63
2022-11-24T21:51:35.975Z,98306.19
2022-11-24T21:54:05.279Z,98309.59
2022-11-24T21:56:32.203Z,98313.00
2022-11-24T21:58:58.911Z,98310.47
2022-11-24T22:01:28.307Z,98307.88
2022-11-24T22:03:57.645Z,98320.69
2022-11-24T22:06:24.451Z,98317.28
2022-11-24T22:08:51.533Z,98318.16
2022-11-24T22:11:23.610Z,98320.69
2022-11-24T22:13:51.460Z,98325.91
2022-11-24T22:16:23.753Z,98325.84
2022-11-24T22:18:51.092Z,98332.72
2022-11-24T22:21:22.580Z,98335.28
2022-11-24T22:23:54.836Z,98336.19
2022-11-24T22:26:23.044Z,98342.22
2022-11-24T22:28:52.422Z,98342.25
2022-11-24T22:31:21.322Z,98343.16
2022-11-24T22:33:48.854Z,98355.16
2022-11-24T22:36:18.935Z,98363.72
2022-11-24T22:38:47.145Z,98363.78
2022-11-24T22:41:17.414Z,98366.41
2022-11-24T22:43:45.560Z,98363.91
2022-11-24T22:46:14.843Z,98364.75
2022-11-24T22:48:42.440Z,98362.22
2022-11-24T22:51:17.754Z,98359.69
2022-11-24T22:53:52.420Z,98366.59
2022-11-24T22:56:19.931Z,98360.63
2022-11-24T22:58:47.411Z,98374.38
2022-11-24T23:01:20.506Z,98368.38
2022-11-24T23:03:48.965Z,98371.81
2022-11-24T23:06:28.181Z,98374.38
2022-11-24T23:08:55.519Z,98378.66
2022-11-24T23:11:30.743Z,98388.13
2022-11-24T23:14:03.008Z,98382.97
2022-11-24T23:16:30.767Z,98383.81
2022-11-24T23:18:59.216Z,98376.97
2022-11-24T23:21:31.305Z,98386.38
2022-11-24T23:24:03.310Z,98387.25
2022-11-24T23:26:34.474Z,98390.69
2022-11-24T23:29:02.276Z,98387.25
2022-11-24T23:31:29.486Z,98389.84
2022-11-24T23:33:58.421Z,98382.16
2022-11-24T23:36:25.424Z,98379.59
2022-11-24T23:38:52.111Z,98383.91
2022-11-24T23:41:22.925Z,98381.34
2022-11-24T23:43:50.788Z,98384.84
2022-11-24T23:46:20.613Z,98383.19
2022-11-24T23:48:49.602Z,98380.63
2022-11-24T23:51:18.888Z,98381.53
2022-11-24T23:53:46.081Z,98384.09
2022-11-24T23:56:16.602Z,98385.03
2022-11-24T23:58:43.732Z,98373.09
